createdAt,value
2023-02-27T00:01:23.845Z,990.8
2023-02-27T00:03:25.320Z,990.8
2023-02-27T00:05:26.606Z,990.8
2023-02-27T00:07:28.320Z,990.8
2023-02-27T00:09:30.302Z,990.9
2023-02-27T00:11:31.512Z,990.8
2023-02-27T00:13:33.340Z,990.8
2023-02-27T00:15:35.014Z,990.8
2023-02-27T00:17:36.552Z,990.7
2023-02-27T00:19:38.176Z,990.8
2023-02-27T00:21:40.178Z,990.7
2023-02-27T00:23:41.354Z,990.7
2023-02-27T00:25:43.401Z,990.8
2023-02-27T00:29:46.662Z,990.7
2023-02-27T00:31:48.794Z,990.8
2023-02-27T00:33:50.621Z,990.7
2023-02-27T00:35:52.274Z,990.7
2023-02-27T00:37:53.969Z,990.7
2023-02-27T00:39:55.374Z,990.7
2023-02-27T00:40:39.410Z,990.6
2023-02-27T00:44:42.768Z,990.7
2023-02-27T00:46:43.978Z,990.7
2023-02-27T00:48:45.341Z,990.7
2023-02-27T00:50:47.222Z,990.7
2023-02-27T00:52:48.987Z,990.7
2023-02-27T00:54:50.855Z,990.7
2023-02-27T00:56:52.643Z,990.8
2023-02-27T00:58:54.449Z,990.9
2023-02-27T01:00:56.331Z,990.8
2023-02-27T01:02:57.570Z,990.8
2023-02-27T01:07:00.201Z,990.8
2023-02-27T01:09:02.128Z,990.8
2023-02-27T01:11:04.117Z,990.8
2023-02-27T01:13:05.275Z,990.8
2023-02-27T01:15:07.309Z,990.7
2023-02-27T01:17:08.851Z,990.7
2023-02-27T01:19:10.933Z,990.8
2023-02-27T01:21:12.754Z,990.7
2023-02-27T01:23:14.702Z,990.8
2023-02-27T01:25:16.161Z,990.7
2023-02-27T01:27:18.273Z,990.8
2023-02-27T01:29:19.883Z,990.6
2023-02-27T01:31:21.593Z,990.7
2023-02-27T01:33:23.581Z,990.7
2023-02-27T01:35:25.624Z,990.8
2023-02-27T01:37:27.212Z,990.6
2023-02-27T01:39:29.255Z,990.7
2023-02-27T01:41:33.939Z,990.6
2023-02-27T01:43:32.619Z,990.6
2023-02-27T01:45:33.847Z,990.5
2023-02-27T01:49:36.622Z,990.4
2023-02-27T01:51:38.659Z,990.5
2023-02-27T01:53:40.705Z,990.5
2023-02-27T01:55:42.662Z,990.5
2023-02-27T01:57:44.512Z,990.6
2023-02-27T01:59:46.396Z,990.5
2023-02-27T02:01:48.166Z,990.6
2023-02-27T02:03:49.720Z,990.6
2023-02-27T02:05:51.360Z,990.8
2023-02-27T02:08:01.999Z,990.6
2023-02-27T02:09:54.315Z,990.6
2023-02-27T02:11:56.402Z,990.6
2023-02-27T02:13:57.533Z,990.5
2023-02-27T02:15:58.736Z,990.5
2023-02-27T02:18:00.268Z,990.5
2023-02-27T02:20:02.125Z,990.5
2023-02-27T02:22:03.765Z,990.6
2023-02-27T02:24:05.512Z,990.7
2023-02-27T02:26:06.916Z,990.7
2023-02-27T02:28:08.656Z,990.6
2023-02-27T02:32:11.783Z,990.7
2023-02-27T02:34:12.973Z,990.6
2023-02-27T02:36:14.279Z,990.6
2023-02-27T02:38:16.075Z,990.6
2023-02-27T02:40:17.715Z,990.6
2023-02-27T02:42:19.544Z,990.6
2023-02-27T02:44:30.261Z,990.5
2023-02-27T02:46:22.821Z,990.6
2023-02-27T02:48:24.366Z,990.6
2023-02-27T02:50:26.410Z,990.6
2023-02-27T02:52:27.547Z,990.7
2023-02-27T02:54:28.913Z,990.6
2023-02-27T02:56:30.571Z,990.6
2023-02-27T02:58:31.821Z,990.7
2023-02-27T03:00:33.858Z,990.7
2023-02-27T03:02:35.415Z,990.7
2023-02-27T03:04:37.204Z,990.7
2023-02-27T03:06:38.594Z,990.7
2023-02-27T03:08:40.069Z,990.8
2023-02-27T03:10:41.185Z,990.8
2023-02-27T03:12:42.325Z,990.8
2023-02-27T03:14:43.960Z,990.8
2023-02-27T03:16:45.910Z,990.8
2023-02-27T03:18:47.047Z,990.7
2023-02-27T03:20:48.684Z,990.8
2023-02-27T03:22:50.779Z,990.9
2023-02-27T03:24:52.452Z,990.9
2023-02-27T03:26:54.084Z,991
2023-02-27T03:28:55.841Z,991
2023-02-27T03:30:57.645Z,991
2023-02-27T03:32:59.153Z,990.9
2023-02-27T03:35:00.550Z,990.9
2023-02-27T03:37:02.401Z,991
2023-02-27T03:39:04.433Z,991
2023-02-27T03:41:05.933Z,990.9
2023-02-27T03:43:07.829Z,991.1
2023-02-27T03:45:09.323Z,990.9
2023-02-27T03:47:11.085Z,991
2023-02-27T03:49:13.010Z,991
2023-02-27T03:51:14.982Z,991
2023-02-27T03:53:16.385Z,991
2023-02-27T03:55:17.870Z,991
2023-02-27T03:57:19.163Z,991
2023-02-27T03:59:21.086Z,991
2023-02-27T04:01:22.420Z,991.1
2023-02-27T04:03:23.705Z,991
2023-02-27T04:05:25.438Z,991
2023-02-27T04:07:27.366Z,991.1
2023-02-27T04:09:29.487Z,991
2023-02-27T04:11:31.393Z,991.1
2023-02-27T04:13:32.712Z,991.1
2023-02-27T04:15:34.363Z,991.1
2023-02-27T04:17:35.668Z,991.1
2023-02-27T04:19:37.042Z,991.1
2023-02-27T04:21:38.571Z,991.1
2023-02-27T04:23:40.262Z,991
2023-02-27T04:25:42.168Z,991.1
2023-02-27T04:27:43.596Z,991.2
2023-02-27T04:29:45.692Z,991.1
2023-02-27T04:31:47.643Z,991.2
2023-02-27T04:33:48.857Z,991.2
2023-02-27T04:35:50.649Z,991.2
2023-02-27T04:37:51.904Z,991.1
2023-02-27T04:39:53.679Z,991.2
2023-02-27T04:41:55.555Z,991.3
2023-02-27T04:43:57.472Z,991.3
2023-02-27T04:45:58.912Z,991.3
2023-02-27T04:48:00.841Z,991.2
2023-02-27T04:50:02.901Z,991.3
2023-02-27T04:52:04.352Z,991.3
2023-02-27T04:54:05.897Z,991.3
2023-02-27T04:56:07.241Z,991.3
2023-02-27T04:58:08.388Z,991.3
2023-02-27T05:00:10.280Z,991.3
2023-02-27T05:02:11.864Z,991.4
2023-02-27T05:06:14.176Z,991.3
2023-02-27T05:08:15.481Z,991.4
2023-02-27T05:10:17.307Z,991.4
2023-02-27T05:12:19.105Z,991.4
2023-02-27T05:16:22.472Z,991.4
2023-02-27T05:18:24.213Z,991.5
2023-02-27T05:20:26.532Z,991.5
2023-02-27T05:22:27.433Z,991.4
2023-02-27T05:24:28.965Z,991.4
2023-02-27T05:26:30.645Z,991.5
2023-02-27T05:28:32.539Z,991.5
2023-02-27T05:30:33.743Z,991.5
2023-02-27T05:32:35.642Z,991.4
2023-02-27T05:34:37.333Z,991.4
2023-02-27T05:36:38.874Z,991.7
2023-02-27T05:38:40.247Z,991.6
2023-02-27T05:40:41.580Z,991.6
2023-02-27T05:42:43.122Z,991.7
2023-02-27T05:44:44.666Z,991.7
2023-02-27T05:46:46.097Z,991.7
2023-02-27T05:48:47.650Z,991.8
2023-02-27T05:50:48.760Z,991.8
2023-02-27T05:52:49.909Z,991.8
2023-02-27T05:54:51.477Z,991.7
2023-02-27T05:56:52.921Z,991.7
2023-02-27T05:58:54.097Z,991.8
2023-02-27T06:00:55.850Z,991.8
2023-02-27T06:04:59.246Z,991.8
2023-02-27T06:07:01.362Z,991.9
2023-02-27T06:09:03.415Z,991.8
2023-02-27T06:11:05.212Z,991.8
2023-02-27T06:13:06.731Z,991.9
2023-02-27T06:15:08.778Z,991.7
2023-02-27T06:17:10.623Z,991.8
2023-02-27T06:19:11.918Z,991.9
2023-02-27T06:21:13.456Z,991.8
2023-02-27T06:23:15.151Z,991.8
2023-02-27T06:25:17.099Z,991.8
2023-02-27T06:27:18.370Z,992
2023-02-27T06:29:20.421Z,991.9
2023-02-27T06:31:21.767Z,991.8
2023-02-27T06:33:23.190Z,992
2023-02-27T06:35:25.258Z,991.9
2023-02-27T06:37:26.756Z,991.8
2023-02-27T06:41:30.226Z,991.9
2023-02-27T06:43:32.221Z,991.9
2023-02-27T06:45:34.117Z,992
2023-02-27T06:47:35.827Z,991.9
2023-02-27T06:49:37.108Z,992
2023-02-27T06:51:38.221Z,991.9
2023-02-27T06:53:39.693Z,992
2023-02-27T06:55:41.013Z,992
2023-02-27T06:57:42.308Z,991.9
2023-02-27T06:59:43.898Z,991.9
2023-02-27T07:03:46.807Z,991.9
2023-02-27T07:05:48.618Z,991.9
2023-02-27T07:07:50.089Z,991.8
2023-02-27T07:09:51.540Z,991.9
2023-02-27T07:11:53.483Z,991.9
2023-02-27T07:13:54.618Z,991.9
2023-02-27T07:15:56.161Z,991.9
2023-02-27T07:17:57.553Z,991.9
2023-02-27T07:19:58.674Z,991.8
2023-02-27T07:22:00.107Z,991.8
2023-02-27T07:24:01.764Z,991.8
2023-02-27T07:26:03.417Z,991.8
2023-02-27T07:28:49.287Z,991.8
2023-02-27T07:30:50.769Z,991.8
2023-02-27T07:32:51.860Z,991.9
2023-02-27T07:34:53.403Z,991.9
2023-02-27T07:36:54.631Z,992
2023-02-27T07:38:55.684Z,992
2023-02-27T07:40:56.973Z,992.1
2023-02-27T07:42:58.513Z,992
2023-02-27T07:45:01.091Z,992
2023-02-27T07:47:02.828Z,992
2023-02-27T07:51:05.554Z,992
2023-02-27T07:53:06.524Z,991.9
2023-02-27T07:57:09.461Z,992
2023-02-27T07:59:10.780Z,992
2023-02-27T08:01:11.834Z,992.1
2023-02-27T08:03:12.827Z,992.1
2023-02-27T08:05:14.440Z,992.1
2023-02-27T08:07:15.510Z,992.1
2023-02-27T08:09:17.149Z,992
2023-02-27T08:11:18.230Z,992.1
2023-02-27T08:13:25.145Z,992.2
2023-02-27T08:15:21.462Z,992.2
2023-02-27T08:17:22.848Z,992
2023-02-27T08:19:24.061Z,992
2023-02-27T08:21:25.603Z,992.1
2023-02-27T08:23:26.820Z,992
2023-02-27T08:25:28.537Z,992.2
2023-02-27T08:27:29.547Z,992.2
2023-02-27T08:29:30.864Z,992.1
2023-02-27T08:31:32.301Z,992
2023-02-27T08:33:33.398Z,992.1
2023-02-27T08:35:34.358Z,992.1
2023-02-27T08:37:35.860Z,992
2023-02-27T08:39:37.364Z,992
2023-02-27T08:41:39.218Z,992.1
2023-02-27T08:43:40.485Z,992.2
2023-02-27T08:45:41.519Z,992.2
2023-02-27T08:47:43.289Z,992.1
2023-02-27T08:49:44.837Z,992
2023-02-27T08:51:45.796Z,992.1
2023-02-27T08:53:47.765Z,992.1
2023-02-27T08:55:49.197Z,992.1
2023-02-27T08:57:50.164Z,992.1
2023-02-27T08:59:51.421Z,992.1
2023-02-27T09:01:52.834Z,992.1
2023-02-27T09:03:54.361Z,992.2
2023-02-27T09:05:55.435Z,992.1
2023-02-27T09:07:57.076Z,992.2
2023-02-27T09:09:58.215Z,992.3
2023-02-27T09:11:59.621Z,992.3
2023-02-27T09:14:01.287Z,992.4
2023-02-27T09:16:02.889Z,992.3
2023-02-27T09:18:04.359Z,992.3
2023-02-27T09:22:07.614Z,992.3
2023-02-27T09:24:19.026Z,992.2
2023-02-27T09:26:10.503Z,992.4
2023-02-27T09:28:12.318Z,992.4
2023-02-27T09:32:15.083Z,992.3
2023-02-27T09:34:16.317Z,992.4
2023-02-27T09:36:18.066Z,992.5
2023-02-27T09:38:19.586Z,992.4
2023-02-27T09:40:20.707Z,992.5
2023-02-27T09:42:22.329Z,992.6
2023-02-27T09:44:30.737Z,992.6
2023-02-27T09:46:25.467Z,992.5
2023-02-27T09:48:26.204Z,992.6
2023-02-27T09:50:28.210Z,992.6
2023-02-27T09:52:29.286Z,992.5
2023-02-27T09:54:30.980Z,992.6
2023-02-27T09:56:32.189Z,992.5
2023-02-27T09:58:33.312Z,992.6
2023-02-27T10:00:34.900Z,992.5
2023-02-27T10:02:36.616Z,992.6
2023-02-27T10:04:37.739Z,992.7
2023-02-27T10:06:39.705Z,992.6
2023-02-27T10:08:41.489Z,992.6
2023-02-27T10:10:42.781Z,992.6
2023-02-27T10:14:46.380Z,992.7
2023-02-27T10:16:48.379Z,992.8
2023-02-27T10:18:49.540Z,992.6
2023-02-27T10:20:50.681Z,992.7
2023-02-27T10:22:51.887Z,992.7
2023-02-27T10:24:53.662Z,992.7
2023-02-27T10:26:55.067Z,992.7
2023-02-27T10:28:56.772Z,992.7
2023-02-27T10:30:58.399Z,992.7
2023-02-27T10:32:59.626Z,992.8
2023-02-27T10:35:01.302Z,992.8
2023-02-27T10:37:02.810Z,992.8
2023-02-27T10:39:05.009Z,992.7
2023-02-27T10:41:07.199Z,992.8
2023-02-27T10:43:09.172Z,992.8
2023-02-27T10:47:13.133Z,992.8
2023-02-27T10:49:18.682Z,992.7
2023-02-27T10:51:18.064Z,992.8
2023-02-27T10:53:19.141Z,992.8
2023-02-27T10:55:20.180Z,992.7
2023-02-27T10:57:22.142Z,992.7
2023-02-27T10:59:23.209Z,992.6
2023-02-27T11:01:24.514Z,992.7
2023-02-27T11:03:26.280Z,992.7
2023-02-27T11:05:27.924Z,992.7
2023-02-27T11:07:29.016Z,992.8
2023-02-27T11:09:30.988Z,992.7
2023-02-27T11:11:32.860Z,992.8
2023-02-27T11:13:34.714Z,992.8
2023-02-27T11:15:35.891Z,992.7
2023-02-27T11:17:36.984Z,992.6
2023-02-27T11:19:38.420Z,992.8
2023-02-27T11:21:39.620Z,992.7
2023-02-27T11:23:41.326Z,992.6
2023-02-27T11:25:42.902Z,992.7
2023-02-27T11:29:45.886Z,992.6
2023-02-27T11:31:46.908Z,992.6
2023-02-27T11:33:48.618Z,992.5
2023-02-27T11:35:50.278Z,992.5
2023-02-27T11:39:52.337Z,992.5
2023-02-27T11:41:53.513Z,992.6
2023-02-27T11:46:05.394Z,992.5
2023-02-27T11:48:01.234Z,992.5
2023-02-27T11:50:00.641Z,992.4
2023-02-27T11:52:01.967Z,992.4
2023-02-27T11:54:03.540Z,992.4
2023-02-27T11:56:05.748Z,992.5
2023-02-27T11:58:07.693Z,992.5
2023-02-27T12:00:09.077Z,992.4
2023-02-27T12:02:10.439Z,992.5
2023-02-27T12:04:11.701Z,992.5
2023-02-27T12:06:12.684Z,992.5
2023-02-27T12:08:13.829Z,992.5
2023-02-27T12:10:15.686Z,992.5
2023-02-27T12:12:16.999Z,992.5
2023-02-27T12:14:18.116Z,992.4
2023-02-27T12:16:19.706Z,992.4
2023-02-27T12:18:20.804Z,992.5
2023-02-27T12:20:22.630Z,992.4
2023-02-27T12:22:24.314Z,992.5
2023-02-27T12:24:26.083Z,992.6
2023-02-27T12:28:28.576Z,992.4
2023-02-27T12:30:30.040Z,992.4
2023-02-27T12:32:31.492Z,992.4
2023-02-27T12:34:33.026Z,992.4
2023-02-27T12:36:34.164Z,992.3
2023-02-27T12:38:35.769Z,992.3
2023-02-27T12:40:38.085Z,992.3
2023-02-27T12:42:39.384Z,992.3
2023-02-27T12:44:41.107Z,992.2
2023-02-27T12:46:42.292Z,992.2
2023-02-27T12:48:43.999Z,992.2
2023-02-27T12:50:45.692Z,992.3
2023-02-27T12:52:47.604Z,992.2
2023-02-27T12:54:48.767Z,992.3
2023-02-27T12:56:49.805Z,992.2
2023-02-27T12:58:51.775Z,992.2
2023-02-27T13:00:52.991Z,992.2
2023-02-27T13:02:53.997Z,992.3
2023-02-27T13:04:55.695Z,992.2
2023-02-27T13:06:57.100Z,992.1
2023-02-27T13:08:58.459Z,992.1
2023-02-27T13:11:00.740Z,992
2023-02-27T13:13:02.034Z,992.1
2023-02-27T13:15:03.121Z,992
2023-02-27T13:17:04.578Z,992
2023-02-27T13:19:05.675Z,992.1
2023-02-27T13:21:07.383Z,992
2023-02-27T13:23:08.425Z,992
2023-02-27T13:25:11.000Z,992.1
2023-02-27T13:27:12.249Z,992.1
2023-02-27T13:29:14.149Z,992.1
2023-02-27T13:31:15.703Z,992
2023-02-27T13:33:17.243Z,992
2023-02-27T13:35:18.284Z,992.1
2023-02-27T13:37:19.520Z,992
2023-02-27T13:39:20.638Z,992
2023-02-27T13:41:22.506Z,992.1
2023-02-27T13:43:24.412Z,992.1
2023-02-27T13:45:26.046Z,992.1
2023-02-27T13:47:27.697Z,992.1
2023-02-27T13:49:29.952Z,992.1
2023-02-27T13:51:30.454Z,992.3
2023-02-27T13:53:31.561Z,992.1
2023-02-27T13:55:33.366Z,992.1
2023-02-27T13:57:34.672Z,992.1
2023-02-27T13:59:36.065Z,992.1
2023-02-27T14:01:37.105Z,992.1
2023-02-27T14:03:38.453Z,992.1
2023-02-27T14:05:39.998Z,992.1
2023-02-27T14:09:43.624Z,992.2
2023-02-27T14:11:45.279Z,992.1
2023-02-27T14:14:30.784Z,992.2
2023-02-27T14:16:32.530Z,992.2
2023-02-27T14:18:34.530Z,992.1
2023-02-27T14:20:35.898Z,992.1
2023-02-27T14:22:37.800Z,992.1
2023-02-27T14:24:40.317Z,992.2
2023-02-27T14:26:40.663Z,992.2
2023-02-27T14:28:42.332Z,992.3
2023-02-27T14:30:44.911Z,992.1
2023-02-27T14:32:46.456Z,992.1
2023-02-27T14:34:47.796Z,992.2
2023-02-27T14:36:49.683Z,992.1
2023-02-27T14:38:50.991Z,992.1
2023-02-27T14:40:52.864Z,992.1
2023-02-27T14:42:54.109Z,992
2023-02-27T14:46:56.451Z,992
2023-02-27T14:48:58.080Z,992
2023-02-27T14:50:59.943Z,992.1
2023-02-27T14:53:00.978Z,992.1
2023-02-27T14:55:02.081Z,992
2023-02-27T14:57:03.541Z,991.9
2023-02-27T14:59:05.257Z,992
2023-02-27T15:01:06.199Z,992
2023-02-27T15:03:09.350Z,992
2023-02-27T15:05:08.639Z,991.9
2023-02-27T15:07:10.215Z,992
2023-02-27T15:09:11.469Z,991.8
2023-02-27T15:13:14.633Z,991.8
2023-02-27T15:15:15.726Z,991.9
2023-02-27T15:17:17.252Z,991.8
2023-02-27T15:19:18.870Z,991.9
2023-02-27T15:23:21.761Z,991.9
2023-02-27T15:25:23.451Z,992
2023-02-27T15:27:25.325Z,991.9
2023-02-27T15:29:26.873Z,991.9
2023-02-27T15:31:29.129Z,992
2023-02-27T15:33:30.697Z,991.9
2023-02-27T15:35:32.594Z,992
2023-02-27T15:37:34.006Z,991.9
2023-02-27T15:39:35.779Z,991.9
2023-02-27T15:41:37.123Z,991.8
2023-02-27T15:43:38.503Z,991.9
2023-02-27T15:45:40.357Z,992
2023-02-27T15:47:43.900Z,991.9
2023-02-27T15:49:43.433Z,991.9
2023-02-27T15:51:45.062Z,991.9
2023-02-27T15:55:48.172Z,992
2023-02-27T15:58:00.918Z,992
2023-02-27T15:59:50.561Z,992
2023-02-27T16:01:52.334Z,992.1
2023-02-27T16:05:55.378Z,992.2
2023-02-27T16:07:56.976Z,992.1
2023-02-27T16:09:58.717Z,992.2
2023-02-27T16:11:59.875Z,992.3
2023-02-27T16:14:01.147Z,992.3
2023-02-27T16:16:03.111Z,992.3
2023-02-27T16:18:04.170Z,992.2
2023-02-27T16:20:06.281Z,992.5
2023-02-27T16:22:06.785Z,992.5
2023-02-27T16:24:07.919Z,992.5
2023-02-27T16:26:09.770Z,992.5
2023-02-27T16:28:11.772Z,992.5
2023-02-27T16:30:13.760Z,992.6
2023-02-27T16:32:14.913Z,992.5
2023-02-27T16:34:16.561Z,992.5
2023-02-27T16:36:18.192Z,992.7
2023-02-27T16:38:20.088Z,992.7
2023-02-27T16:40:21.310Z,992.6
2023-02-27T16:42:22.768Z,992.7
2023-02-27T16:44:24.627Z,992.7
2023-02-27T16:48:27.906Z,992.8
2023-02-27T16:50:29.653Z,992.7
2023-02-27T16:54:32.803Z,992.9
2023-02-27T16:56:38.357Z,992.9
2023-02-27T16:58:35.657Z,992.9
2023-02-27T17:00:36.820Z,992.9
2023-02-27T17:02:37.940Z,992.9
2023-02-27T17:04:39.287Z,993
2023-02-27T17:06:40.469Z,992.9
2023-02-27T17:08:42.104Z,993
2023-02-27T17:10:43.284Z,993
2023-02-27T17:12:45.091Z,993
2023-02-27T17:14:46.638Z,993.1
2023-02-27T17:16:48.093Z,993.1
2023-02-27T17:18:49.272Z,993.1
2023-02-27T17:20:50.415Z,993.2
2023-02-27T17:24:53.993Z,993.2
2023-02-27T17:26:55.665Z,993.2
2023-02-27T17:28:57.069Z,993.3
2023-02-27T17:30:58.930Z,993.3
2023-02-27T17:33:02.582Z,993.3
2023-02-27T17:37:04.179Z,993.4
2023-02-27T17:39:05.972Z,993.3
2023-02-27T17:41:07.519Z,993.4
2023-02-27T17:43:08.997Z,993.3
2023-02-27T17:45:10.453Z,993.5
2023-02-27T17:47:11.696Z,993.4
2023-02-27T17:49:13.051Z,993.4
2023-02-27T17:51:15.142Z,993.5
2023-02-27T17:53:16.896Z,993.4
2023-02-27T17:55:18.493Z,993.4
2023-02-27T17:57:20.305Z,993.4
2023-02-27T17:59:22.204Z,993.6
2023-02-27T18:01:23.803Z,993.4
2023-02-27T18:03:25.173Z,993.6
2023-02-27T18:05:27.230Z,993.5
2023-02-27T18:07:28.899Z,993.5
2023-02-27T18:09:30.283Z,993.5
2023-02-27T18:11:31.806Z,993.6
2023-02-27T18:13:33.693Z,993.6
2023-02-27T18:15:34.964Z,993.6
2023-02-27T18:19:37.908Z,993.7
2023-02-27T18:21:39.406Z,993.7
2023-02-27T18:23:41.297Z,993.7
2023-02-27T18:25:42.070Z,993.6
2023-02-27T18:27:43.767Z,993.6
2023-02-27T18:29:45.662Z,993.6
2023-02-27T18:31:47.418Z,993.6
2023-02-27T18:33:48.976Z,993.6
2023-02-27T18:35:50.598Z,993.7
2023-02-27T18:37:51.891Z,993.7
2023-02-27T18:39:54.995Z,993.7
2023-02-27T18:41:55.259Z,993.6
2023-02-27T18:43:57.703Z,993.7
2023-02-27T18:45:58.360Z,993.7
2023-02-27T18:48:29.150Z,993.6
2023-02-27T18:50:02.167Z,993.7
2023-02-27T18:52:03.702Z,993.7
2023-02-27T18:54:12.837Z,993.6
2023-02-27T18:56:06.967Z,993.6
2023-02-27T18:58:08.758Z,993.6
2023-02-27T19:02:11.702Z,993.7
2023-02-27T19:04:20.419Z,993.7
2023-02-27T19:06:15.917Z,993.7
2023-02-27T19:08:17.348Z,993.8
2023-02-27T19:12:20.563Z,993.7
2023-02-27T19:14:22.094Z,993.7
2023-02-27T19:16:24.078Z,993.8
2023-02-27T19:18:25.772Z,993.7
2023-02-27T19:20:27.814Z,993.8
2023-02-27T19:22:29.417Z,993.7
2023-02-27T19:24:31.265Z,993.9
2023-02-27T19:26:44.230Z,993.8
2023-02-27T19:28:39.722Z,993.9
2023-02-27T19:30:52.811Z,993.9
2023-02-27T19:32:37.984Z,993.7
2023-02-27T19:34:39.246Z,993.8
2023-02-27T19:38:42.415Z,993.8
2023-02-27T19:40:47.411Z,993.9
2023-02-27T19:44:47.014Z,993.8
2023-02-27T19:46:48.290Z,993.9
2023-02-27T19:48:49.597Z,993.9
2023-02-27T19:50:51.271Z,993.9
2023-02-27T19:52:54.528Z,993.8
2023-02-27T19:54:54.783Z,993.8
2023-02-27T19:56:55.841Z,994
2023-02-27T20:00:58.912Z,993.9
2023-02-27T20:03:00.184Z,994
2023-02-27T20:05:02.068Z,993.9
2023-02-27T20:07:03.461Z,993.9
2023-02-27T20:09:05.099Z,993.9
2023-02-27T20:11:06.750Z,994
2023-02-27T20:13:08.655Z,994
2023-02-27T20:15:09.812Z,994
2023-02-27T20:17:11.439Z,994
2023-02-27T20:19:12.665Z,994
2023-02-27T20:21:13.845Z,994
2023-02-27T20:23:15.247Z,993.9
2023-02-27T20:25:17.199Z,994
2023-02-27T20:27:18.564Z,994
2023-02-27T20:29:19.906Z,993.9
2023-02-27T20:31:21.965Z,994
2023-02-27T20:33:23.211Z,993.9
2023-02-27T20:35:25.032Z,994
2023-02-27T20:37:26.427Z,993.9
2023-02-27T20:39:28.231Z,993.9
2023-02-27T20:43:30.894Z,993.9
2023-02-27T20:45:32.368Z,993.9
2023-02-27T20:47:33.336Z,993.9
2023-02-27T20:49:34.640Z,993.8
2023-02-27T20:51:36.623Z,993.9
2023-02-27T20:53:38.236Z,993.8
2023-02-27T20:55:39.648Z,993.9
2023-02-27T20:57:41.358Z,993.8
2023-02-27T20:58:25.352Z,993.8
2023-02-27T21:00:27.301Z,993.8
2023-02-27T21:04:31.055Z,993.7
2023-02-27T21:06:32.893Z,993.8
2023-02-27T21:08:34.685Z,993.8
2023-02-27T21:10:36.496Z,993.8
2023-02-27T21:12:38.427Z,993.8
2023-02-27T21:14:40.923Z,993.8
2023-02-27T21:16:42.279Z,993.8
2023-02-27T21:18:43.792Z,993.8
2023-02-27T21:20:45.135Z,993.8
2023-02-27T21:22:46.653Z,993.8
2023-02-27T21:24:48.001Z,993.8
2023-02-27T21:26:49.688Z,993.7
2023-02-27T21:28:51.100Z,993.8
2023-02-27T21:30:52.638Z,993.7
2023-02-27T21:32:54.346Z,993.7
2023-02-27T21:34:55.745Z,993.7
2023-02-27T21:36:57.670Z,993.7
2023-02-27T21:38:58.937Z,993.7
2023-02-27T21:41:00.821Z,993.7
2023-02-27T21:43:02.804Z,993.8
2023-02-27T21:47:05.819Z,993.7
2023-02-27T21:49:07.170Z,993.8
2023-02-27T21:51:08.724Z,993.7
2023-02-27T21:53:10.384Z,993.7
2023-02-27T21:57:13.260Z,993.6
2023-02-27T21:59:15.204Z,993.5
2023-02-27T22:01:16.967Z,993.6
2023-02-27T22:03:18.452Z,993.7
2023-02-27T22:05:20.290Z,993.6
2023-02-27T22:07:22.100Z,993.5
2023-02-27T22:09:23.758Z,993.5
2023-02-27T22:11:24.858Z,993.5
2023-02-27T22:13:26.875Z,993.5
2023-02-27T22:15:28.765Z,993.5
2023-02-27T22:17:29.834Z,993.5
2023-02-27T22:19:31.565Z,993.4
2023-02-27T22:21:32.855Z,993.4
2023-02-27T22:23:34.582Z,993.4
2023-02-27T22:25:36.018Z,993.5
2023-02-27T22:29:38.564Z,993.4
2023-02-27T22:31:40.139Z,993.5
2023-02-27T22:33:42.062Z,993.5
2023-02-27T22:35:43.685Z,993.5
2023-02-27T22:39:46.804Z,993.5
2023-02-27T22:41:47.692Z,993.5
2023-02-27T22:43:49.641Z,993.5
2023-02-27T22:45:50.911Z,993.5
2023-02-27T22:47:52.834Z,993.4
2023-02-27T22:49:54.422Z,993.4
2023-02-27T22:51:55.696Z,993.4
2023-02-27T22:53:57.693Z,993.5
2023-02-27T22:55:59.620Z,993.5
2023-02-27T22:58:01.264Z,993.5
2023-02-27T23:00:03.030Z,993.4
2023-02-27T23:02:04.994Z,993.6
2023-02-27T23:04:06.141Z,993.5
2023-02-27T23:06:07.523Z,993.5
2023-02-27T23:08:09.540Z,993.5
2023-02-27T23:12:12.562Z,993.6
2023-02-27T23:14:14.126Z,993.4
2023-02-27T23:16:15.253Z,993.5
2023-02-27T23:18:16.545Z,993.4
2023-02-27T23:22:19.277Z,993.5
2023-02-27T23:24:21.173Z,993.4
2023-02-27T23:26:23.116Z,993.4
2023-02-27T23:28:25.171Z,993.5
2023-02-27T23:30:26.486Z,993.5
2023-02-27T23:32:27.870Z,993.5
2023-02-27T23:34:37.850Z,993.5
2023-02-27T23:36:31.227Z,993.5
2023-02-27T23:38:33.100Z,993.5
2023-02-27T23:40:35.002Z,993.5
2023-02-27T23:42:37.009Z,993.4
2023-02-27T23:44:38.870Z,993.4
2023-02-27T23:46:40.216Z,993.6
2023-02-27T23:48:41.338Z,993.4
2023-02-27T23:50:43.109Z,993.5
2023-02-27T23:54:45.719Z,993.5
2023-02-27T23:56:47.703Z,993.4
2023-02-27T23:58:49.390Z,993.5
